sensor_id;sensor_type;location;lat;lon;timestamp;temperature;humidity
5059;DHT22;2548;52.050;11.036;2023-05-23T00:00:18;17.10;99.90
5059;DHT22;2548;52.050;11.036;2023-05-23T00:02:46;17.10;99.90
5059;DHT22;2548;52.050;11.036;2023-05-23T00:05:14;17.00;99.90
5059;DHT22;2548;52.050;11.036;2023-05-23T00:07:43;17.00;99.90
5059;DHT22;2548;52.050;11.036;2023-05-23T00:10:11;17.00;99.90
5059;DHT22;2548;52.050;11.036;2023-05-23T00:12:38;16.90;99.90
5059;DHT22;2548;52.050;11.036;2023-05-23T00:15:08;16.90;99.90
5059;DHT22;2548;52.050;11.036;2023-05-23T00:17:37;16.90;99.90
5059;DHT22;2548;52.050;11.036;2023-05-23T00:20:05;16.90;99.90
5059;DHT22;2548;52.050;11.036;2023-05-23T00:22:34;16.90;99.90
5059;DHT22;2548;52.050;11.036;2023-05-23T00:25:07;16.90;99.90
5059;DHT22;2548;52.050;11.036;2023-05-23T00:27:35;16.90;99.90
5059;DHT22;2548;52.050;11.036;2023-05-23T00:30:03;16.90;99.90
5059;DHT22;2548;52.050;11.036;2023-05-23T00:32:31;16.90;99.90
5059;DHT22;2548;52.050;11.036;2023-05-23T00:34:59;16.90;99.90
5059;DHT22;2548;52.050;11.036;2023-05-23T00:37:27;16.90;99.90
5059;DHT22;2548;52.050;11.036;2023-05-23T00:39:55;16.90;99.90
5059;DHT22;2548;52.050;11.036;2023-05-23T00:42:22;16.90;99.90
5059;DHT22;2548;52.050;11.036;2023-05-23T00:44:50;16.90;99.90
5059;DHT22;2548;52.050;11.036;2023-05-23T00:47:17;16.90;99.90
5059;DHT22;2548;52.050;11.036;2023-05-23T00:49:45;16.90;99.90
5059;DHT22;2548;52.050;11.036;2023-05-23T00:52:14;16.90;99.90
5059;DHT22;2548;52.050;11.036;2023-05-23T00:54:41;16.90;99.90
5059;DHT22;2548;52.050;11.036;2023-05-23T00:57:09;16.90;99.90
5059;DHT22;2548;52.050;11.036;2023-05-23T00:59:37;16.90;99.90
5059;DHT22;2548;52.050;11.036;2023-05-23T01:02:04;16.90;99.90
5059;DHT22;2548;52.050;11.036;2023-05-23T01:04:32;16.80;99.90
5059;DHT22;2548;52.050;11.036;2023-05-23T01:07:01;16.80;99.90
5059;DHT22;2548;52.050;11.036;2023-05-23T01:09:30;16.80;99.90
5059;DHT22;2548;52.050;11.036;2023-05-23T01:12:07;16.80;99.90
5059;DHT22;2548;52.050;11.036;2023-05-23T01:14:44;16.80;99.90
5059;DHT22;2548;52.050;11.036;2023-05-23T01:17:18;16.70;99.90
5059;DHT22;2548;52.050;11.036;2023-05-23T01:19:54;16.70;99.90
5059;DHT22;2548;52.050;11.036;2023-05-23T01:22:48;16.70;99.90
5059;DHT22;2548;52.050;11.036;2023-05-23T01:25:30;16.60;99.90
5059;DHT22;2548;52.050;11.036;2023-05-23T01:28:04;16.60;99.90
5059;DHT22;2548;52.050;11.036;2023-05-23T01:30:37;16.50;99.90
5059;DHT22;2548;52.050;11.036;2023-05-23T01:33:07;16.50;99.90
5059;DHT22;2548;52.050;11.036;2023-05-23T01:35:35;16.40;99.90
5059;DHT22;2548;52.050;11.036;2023-05-23T01:38:03;16.30;99.90
5059;DHT22;2548;52.050;11.036;2023-05-23T01:40:30;16.30;99.90
5059;DHT22;2548;52.050;11.036;2023-05-23T01:42:58;16.20;99.90
5059;DHT22;2548;52.050;11.036;2023-05-23T01:45:29;16.30;99.90
5059;DHT22;2548;52.050;11.036;2023-05-23T01:47:57;16.20;99.90
5059;DHT22;2548;52.050;11.036;2023-05-23T01:50:27;16.20;99.90
5059;DHT22;2548;52.050;11.036;2023-05-23T01:52:55;16.10;99.90
5059;DHT22;2548;52.050;11.036;2023-05-23T01:55:24;16.10;99.90
5059;DHT22;2548;52.050;11.036;2023-05-23T01:57:54;16.20;99.90
5059;DHT22;2548;52.050;11.036;2023-05-23T02:00:22;16.10;99.90
5059;DHT22;2548;52.050;11.036;2023-05-23T02:02:52;16.10;99.90
5059;DHT22;2548;52.050;11.036;2023-05-23T02:05:20;16.00;99.90
5059;DHT22;2548;52.050;11.036;2023-05-23T02:07:48;16.00;99.90
5059;DHT22;2548;52.050;11.036;2023-05-23T02:10:18;16.00;99.90
5059;DHT22;2548;52.050;11.036;2023-05-23T02:12:46;16.00;99.90
5059;DHT22;2548;52.050;11.036;2023-05-23T02:15:13;16.00;99.90
5059;DHT22;2548;52.050;11.036;2023-05-23T02:17:42;16.00;99.90
5059;DHT22;2548;52.050;11.036;2023-05-23T02:20:11;16.00;99.90
5059;DHT22;2548;52.050;11.036;2023-05-23T02:22:39;16.00;99.90
5059;DHT22;2548;52.050;11.036;2023-05-23T02:25:08;16.00;99.90
5059;DHT22;2548;52.050;11.036;2023-05-23T02:27:36;15.90;99.90
5059;DHT22;2548;52.050;11.036;2023-05-23T02:30:04;15.90;99.90
5059;DHT22;2548;52.050;11.036;2023-05-23T02:32:32;15.90;99.90
5059;DHT22;2548;52.050;11.036;2023-05-23T02:35:00;15.90;99.90
5059;DHT22;2548;52.050;11.036;2023-05-23T02:37:29;15.90;99.90
5059;DHT22;2548;52.050;11.036;2023-05-23T02:39:57;15.90;99.90
5059;DHT22;2548;52.050;11.036;2023-05-23T02:42:24;15.90;99.90
5059;DHT22;2548;52.050;11.036;2023-05-23T02:44:52;15.90;99.90
5059;DHT22;2548;52.050;11.036;2023-05-23T02:47:19;15.90;99.90
5059;DHT22;2548;52.050;11.036;2023-05-23T02:49:48;15.90;99.90
5059;DHT22;2548;52.050;11.036;2023-05-23T02:52:15;15.90;99.90
5059;DHT22;2548;52.050;11.036;2023-05-23T02:54:44;15.90;99.90
5059;DHT22;2548;52.050;11.036;2023-05-23T02:57:12;15.80;99.90
5059;DHT22;2548;52.050;11.036;2023-05-23T02:59:41;15.80;99.90
5059;DHT22;2548;52.050;11.036;2023-05-23T03:02:08;15.80;99.90
5059;DHT22;2548;52.050;11.036;2023-05-23T03:04:36;15.80;99.90
5059;DHT22;2548;52.050;11.036;2023-05-23T03:07:04;15.80;99.90
5059;DHT22;2548;52.050;11.036;2023-05-23T03:09:31;15.80;99.90
5059;DHT22;2548;52.050;11.036;2023-05-23T03:12:01;15.80;99.90
5059;DHT22;2548;52.050;11.036;2023-05-23T03:14:29;15.80;99.90
5059;DHT22;2548;52.050;11.036;2023-05-23T03:16:57;15.80;99.90
5059;DHT22;2548;52.050;11.036;2023-05-23T03:19:24;15.80;99.90
5059;DHT22;2548;52.050;11.036;2023-05-23T03:21:52;15.80;99.90
5059;DHT22;2548;52.050;11.036;2023-05-23T03:24:19;15.70;99.90
5059;DHT22;2548;52.050;11.036;2023-05-23T03:26:46;15.70;99.90
5059;DHT22;2548;52.050;11.036;2023-05-23T03:29:15;15.70;99.90
5059;DHT22;2548;52.050;11.036;2023-05-23T03:31:43;15.70;99.90
5059;DHT22;2548;52.050;11.036;2023-05-23T03:34:10;15.80;99.90
5059;DHT22;2548;52.050;11.036;2023-05-23T03:36:38;15.80;99.90
5059;DHT22;2548;52.050;11.036;2023-05-23T03:39:05;15.80;99.90
5059;DHT22;2548;52.050;11.036;2023-05-23T03:41:34;15.80;99.90
5059;DHT22;2548;52.050;11.036;2023-05-23T03:44:01;15.80;99.90
5059;DHT22;2548;52.050;11.036;2023-05-23T03:46:30;15.80;99.90
5059;DHT22;2548;52.050;11.036;2023-05-23T03:48:58;15.80;99.90
5059;DHT22;2548;52.050;11.036;2023-05-23T03:51:25;15.80;99.90
5059;DHT22;2548;52.050;11.036;2023-05-23T03:53:53;15.80;99.90
5059;DHT22;2548;52.050;11.036;2023-05-23T03:56:21;15.80;99.90
5059;DHT22;2548;52.050;11.036;2023-05-23T03:58:48;15.70;99.90
5059;DHT22;2548;52.050;11.036;2023-05-23T04:01:16;15.60;99.90
5059;DHT22;2548;52.050;11.036;2023-05-23T04:03:48;15.60;99.90
5059;DHT22;2548;52.050;11.036;2023-05-23T04:06:17;15.50;99.90
5059;DHT22;2548;52.050;11.036;2023-05-23T04:08:45;15.50;99.90
5059;DHT22;2548;52.050;11.036;2023-05-23T04:11:13;15.40;99.90
5059;DHT22;2548;52.050;11.036;2023-05-23T04:13:41;15.30;99.90
5059;DHT22;2548;52.050;11.036;2023-05-23T04:16:10;15.20;99.90
5059;DHT22;2548;52.050;11.036;2023-05-23T04:18:37;15.10;99.90
5059;DHT22;2548;52.050;11.036;2023-05-23T04:21:07;15.00;99.90
5059;DHT22;2548;52.050;11.036;2023-05-23T04:23:39;15.00;99.90
5059;DHT22;2548;52.050;11.036;2023-05-23T04:26:07;14.90;99.90
5059;DHT22;2548;52.050;11.036;2023-05-23T04:28:40;14.80;99.90
5059;DHT22;2548;52.050;11.036;2023-05-23T04:31:11;14.80;99.90
5059;DHT22;2548;52.050;11.036;2023-05-23T04:33:38;14.80;99.90
5059;DHT22;2548;52.050;11.036;2023-05-23T04:36:08;14.80;99.90
5059;DHT22;2548;52.050;11.036;2023-05-23T04:38:38;14.80;99.90
5059;DHT22;2548;52.050;11.036;2023-05-23T04:41:06;14.80;99.90
5059;DHT22;2548;52.050;11.036;2023-05-23T04:44:10;14.80;99.90
5059;DHT22;2548;52.050;11.036;2023-05-23T04:46:42;14.90;99.90
5059;DHT22;2548;52.050;11.036;2023-05-23T04:49:22;14.90;99.90
5059;DHT22;2548;52.050;11.036;2023-05-23T04:51:52;14.90;99.90
5059;DHT22;2548;52.050;11.036;2023-05-23T04:54:29;14.90;99.90
5059;DHT22;2548;52.050;11.036;2023-05-23T04:57:00;14.90;99.90
5059;DHT22;2548;52.050;11.036;2023-05-23T04:59:29;14.80;99.90
5059;DHT22;2548;52.050;11.036;2023-05-23T05:01:57;14.80;99.90
5059;DHT22;2548;52.050;11.036;2023-05-23T05:04:24;14.80;99.90
5059;DHT22;2548;52.050;11.036;2023-05-23T05:06:53;14.80;99.90
5059;DHT22;2548;52.050;11.036;2023-05-23T05:09:21;14.80;99.90
5059;DHT22;2548;52.050;11.036;2023-05-23T05:11:49;14.80;99.90
5059;DHT22;2548;52.050;11.036;2023-05-23T05:14:16;14.70;99.90
5059;DHT22;2548;52.050;11.036;2023-05-23T05:16:44;14.70;99.90
5059;DHT22;2548;52.050;11.036;2023-05-23T05:19:13;14.70;99.90
5059;DHT22;2548;52.050;11.036;2023-05-23T05:21:40;14.80;99.90
5059;DHT22;2548;52.050;11.036;2023-05-23T05:24:09;14.90;99.90
5059;DHT22;2548;52.050;11.036;2023-05-23T05:26:37;14.90;99.90
5059;DHT22;2548;52.050;11.036;2023-05-23T05:29:05;15.00;99.90
5059;DHT22;2548;52.050;11.036;2023-05-23T05:31:32;15.00;99.90
5059;DHT22;2548;52.050;11.036;2023-05-23T05:34:00;14.90;99.90
5059;DHT22;2548;52.050;11.036;2023-05-23T05:36:28;14.90;99.90
5059;DHT22;2548;52.050;11.036;2023-05-23T05:38:57;14.90;99.90
5059;DHT22;2548;52.050;11.036;2023-05-23T05:41:26;15.00;99.90
5059;DHT22;2548;52.050;11.036;2023-05-23T05:43:54;15.00;99.90
5059;DHT22;2548;52.050;11.036;2023-05-23T05:46:22;15.10;99.90
5059;DHT22;2548;52.050;11.036;2023-05-23T05:48:50;15.20;99.90
5059;DHT22;2548;52.050;11.036;2023-05-23T05:51:18;15.20;99.90
5059;DHT22;2548;52.050;11.036;2023-05-23T05:53:46;15.20;99.90
5059;DHT22;2548;52.050;11.036;2023-05-23T05:56:16;15.20;99.90
5059;DHT22;2548;52.050;11.036;2023-05-23T05:58:45;15.20;99.90
5059;DHT22;2548;52.050;11.036;2023-05-23T06:01:15;15.30;99.90
5059;DHT22;2548;52.050;11.036;2023-05-23T06:03:42;15.40;99.90
5059;DHT22;2548;52.050;11.036;2023-05-23T06:06:10;15.50;99.90
5059;DHT22;2548;52.050;11.036;2023-05-23T06:08:40;15.60;99.90
5059;DHT22;2548;52.050;11.036;2023-05-23T06:11:10;15.60;99.90
5059;DHT22;2548;52.050;11.036;2023-05-23T06:13:38;15.70;99.90
5059;DHT22;2548;52.050;11.036;2023-05-23T06:16:07;15.80;99.90
5059;DHT22;2548;52.050;11.036;2023-05-23T06:18:34;15.80;99.90
5059;DHT22;2548;52.050;11.036;2023-05-23T06:21:02;15.80;99.90
5059;DHT22;2548;52.050;11.036;2023-05-23T06:23:30;15.80;99.90
5059;DHT22;2548;52.050;11.036;2023-05-23T06:25:57;15.70;99.90
5059;DHT22;2548;52.050;11.036;2023-05-23T06:28:25;15.60;99.90
5059;DHT22;2548;52.050;11.036;2023-05-23T06:30:52;15.50;99.90
5059;DHT22;2548;52.050;11.036;2023-05-23T06:33:21;15.40;99.90
5059;DHT22;2548;52.050;11.036;2023-05-23T06:35:49;15.40;99.90
5059;DHT22;2548;52.050;11.036;2023-05-23T06:38:16;15.30;99.90
5059;DHT22;2548;52.050;11.036;2023-05-23T06:40:44;15.30;99.90
5059;DHT22;2548;52.050;11.036;2023-05-23T06:43:12;15.40;99.90
5059;DHT22;2548;52.050;11.036;2023-05-23T06:45:45;15.40;99.90
5059;DHT22;2548;52.050;11.036;2023-05-23T06:48:13;15.40;99.90
5059;DHT22;2548;52.050;11.036;2023-05-23T06:50:42;15.40;99.90
5059;DHT22;2548;52.050;11.036;2023-05-23T06:53:11;15.40;99.90
5059;DHT22;2548;52.050;11.036;2023-05-23T06:55:40;15.40;99.90
5059;DHT22;2548;52.050;11.036;2023-05-23T06:58:10;15.30;99.90
5059;DHT22;2548;52.050;11.036;2023-05-23T07:00:38;15.30;99.90
5059;DHT22;2548;52.050;11.036;2023-05-23T07:03:14;15.30;99.90
5059;DHT22;2548;52.050;11.036;2023-05-23T07:05:43;15.30;99.90
5059;DHT22;2548;52.050;11.036;2023-05-23T07:08:11;15.30;99.90
5059;DHT22;2548;52.050;11.036;2023-05-23T07:10:41;15.30;99.90
5059;DHT22;2548;52.050;11.036;2023-05-23T07:13:22;15.20;99.90
5059;DHT22;2548;52.050;11.036;2023-05-23T07:15:50;15.20;99.90
5059;DHT22;2548;52.050;11.036;2023-05-23T07:18:18;15.20;99.90
5059;DHT22;2548;52.050;11.036;2023-05-23T07:20:47;15.20;99.90
5059;DHT22;2548;52.050;11.036;2023-05-23T07:23:18;15.20;99.90
5059;DHT22;2548;52.050;11.036;2023-05-23T07:25:46;15.10;99.90
5059;DHT22;2548;52.050;11.036;2023-05-23T07:28:23;15.10;99.90
5059;DHT22;2548;52.050;11.036;2023-05-23T07:30:52;15.10;99.90
5059;DHT22;2548;52.050;11.036;2023-05-23T07:33:19;15.00;99.90
5059;DHT22;2548;52.050;11.036;2023-05-23T07:35:49;14.90;99.90
5059;DHT22;2548;52.050;11.036;2023-05-23T07:38:17;14.90;99.90
5059;DHT22;2548;52.050;11.036;2023-05-23T07:40:44;14.80;99.90
5059;DHT22;2548;52.050;11.036;2023-05-23T07:43:12;14.90;99.90
5059;DHT22;2548;52.050;11.036;2023-05-23T07:45:40;14.90;99.90
5059;DHT22;2548;52.050;11.036;2023-05-23T07:48:07;14.90;99.90
5059;DHT22;2548;52.050;11.036;2023-05-23T07:50:36;14.90;99.90
5059;DHT22;2548;52.050;11.036;2023-05-23T07:53:06;15.00;99.90
5059;DHT22;2548;52.050;11.036;2023-05-23T07:55:34;14.90;99.90
5059;DHT22;2548;52.050;11.036;2023-05-23T07:58:02;14.90;99.90
5059;DHT22;2548;52.050;11.036;2023-05-23T08:00:30;14.90;99.90
5059;DHT22;2548;52.050;11.036;2023-05-23T08:03:05;14.80;99.90
5059;DHT22;2548;52.050;11.036;2023-05-23T08:05:38;14.80;99.90
5059;DHT22;2548;52.050;11.036;2023-05-23T08:08:07;14.80;99.90
5059;DHT22;2548;52.050;11.036;2023-05-23T08:10:35;14.80;99.90
5059;DHT22;2548;52.050;11.036;2023-05-23T08:13:08;14.80;99.90
5059;DHT22;2548;52.050;11.036;2023-05-23T08:15:44;14.80;99.90
5059;DHT22;2548;52.050;11.036;2023-05-23T08:18:15;14.80;99.90
5059;DHT22;2548;52.050;11.036;2023-05-23T08:20:43;14.80;99.90
5059;DHT22;2548;52.050;11.036;2023-05-23T08:23:12;14.80;99.90
5059;DHT22;2548;52.050;11.036;2023-05-23T08:25:39;14.80;99.90
5059;DHT22;2548;52.050;11.036;2023-05-23T08:28:07;14.80;99.90
5059;DHT22;2548;52.050;11.036;2023-05-23T08:30:50;14.80;99.90
5059;DHT22;2548;52.050;11.036;2023-05-23T08:33:19;14.80;99.90
5059;DHT22;2548;52.050;11.036;2023-05-23T08:35:48;14.80;99.90
5059;DHT22;2548;52.050;11.036;2023-05-23T08:38:19;14.80;99.90
5059;DHT22;2548;52.050;11.036;2023-05-23T08:41:00;14.80;99.90
5059;DHT22;2548;52.050;11.036;2023-05-23T08:43:29;14.90;99.90
5059;DHT22;2548;52.050;11.036;2023-05-23T08:45:57;14.90;99.90
5059;DHT22;2548;52.050;11.036;2023-05-23T08:48:28;14.90;99.90
5059;DHT22;2548;52.050;11.036;2023-05-23T08:50:57;14.80;99.90
5059;DHT22;2548;52.050;11.036;2023-05-23T08:53:28;14.80;99.90
5059;DHT22;2548;52.050;11.036;2023-05-23T08:56:04;14.80;99.90
5059;DHT22;2548;52.050;11.036;2023-05-23T08:58:41;14.80;99.90
5059;DHT22;2548;52.050;11.036;2023-05-23T09:01:09;14.70;99.90
5059;DHT22;2548;52.050;11.036;2023-05-23T09:03:39;14.80;99.90
5059;DHT22;2548;52.050;11.036;2023-05-23T09:06:15;14.80;99.90
5059;DHT22;2548;52.050;11.036;2023-05-23T09:08:45;14.80;99.90
5059;DHT22;2548;52.050;11.036;2023-05-23T09:11:14;14.70;99.90
5059;DHT22;2548;52.050;11.036;2023-05-23T09:13:44;14.70;99.90
5059;DHT22;2548;52.050;11.036;2023-05-23T09:16:15;14.70;99.90
5059;DHT22;2548;52.050;11.036;2023-05-23T09:18:48;14.70;99.90
5059;DHT22;2548;52.050;11.036;2023-05-23T09:21:18;14.60;99.90
5059;DHT22;2548;52.050;11.036;2023-05-23T09:24:06;14.60;99.90
5059;DHT22;2548;52.050;11.036;2023-05-23T09:26:34;14.60;99.90
5059;DHT22;2548;52.050;11.036;2023-05-23T09:29:04;14.60;99.90
5059;DHT22;2548;52.050;11.036;2023-05-23T09:31:32;14.60;99.90
5059;DHT22;2548;52.050;11.036;2023-05-23T09:34:01;14.50;99.90
5059;DHT22;2548;52.050;11.036;2023-05-23T09:36:29;14.50;99.90
5059;DHT22;2548;52.050;11.036;2023-05-23T09:39:01;14.50;99.90
5059;DHT22;2548;52.050;11.036;2023-05-23T09:41:32;14.60;99.90
5059;DHT22;2548;52.050;11.036;2023-05-23T09:44:05;14.60;99.90
5059;DHT22;2548;52.050;11.036;2023-05-23T09:46:35;14.50;99.90
5059;DHT22;2548;52.050;11.036;2023-05-23T09:49:14;14.50;99.90
5059;DHT22;2548;52.050;11.036;2023-05-23T09:51:42;14.50;99.90
5059;DHT22;2548;52.050;11.036;2023-05-23T09:54:09;14.50;99.90
5059;DHT22;2548;52.050;11.036;2023-05-23T09:56:39;14.50;99.90
5059;DHT22;2548;52.050;11.036;2023-05-23T09:59:11;14.50;99.90
5059;DHT22;2548;52.050;11.036;2023-05-23T10:01:41;14.40;99.90
5059;DHT22;2548;52.050;11.036;2023-05-23T10:04:11;14.40;99.90
5059;DHT22;2548;52.050;11.036;2023-05-23T10:06:48;14.30;99.90
5059;DHT22;2548;52.050;11.036;2023-05-23T10:09:20;14.30;99.90
5059;DHT22;2548;52.050;11.036;2023-05-23T10:15:14;14.30;99.90
5059;DHT22;2548;52.050;11.036;2023-05-23T10:18:00;14.10;99.90
5059;DHT22;2548;52.050;11.036;2023-05-23T10:20:30;14.00;99.90
5059;DHT22;2548;52.050;11.036;2023-05-23T10:22:59;14.00;99.90
5059;DHT22;2548;52.050;11.036;2023-05-23T10:25:27;13.90;99.90
5059;DHT22;2548;52.050;11.036;2023-05-23T10:27:57;13.80;99.90
5059;DHT22;2548;52.050;11.036;2023-05-23T10:30:27;13.90;99.90
5059;DHT22;2548;52.050;11.036;2023-05-23T10:32:55;13.80;99.90
5059;DHT22;2548;52.050;11.036;2023-05-23T10:35:37;13.90;99.90
5059;DHT22;2548;52.050;11.036;2023-05-23T10:38:12;13.80;99.90
5059;DHT22;2548;52.050;11.036;2023-05-23T10:40:51;13.80;99.90
5059;DHT22;2548;52.050;11.036;2023-05-23T10:43:26;13.90;99.90
5059;DHT22;2548;52.050;11.036;2023-05-23T10:45:56;14.00;99.90
5059;DHT22;2548;52.050;11.036;2023-05-23T10:48:31;14.00;99.90
5059;DHT22;2548;52.050;11.036;2023-05-23T10:51:04;13.90;99.90
5059;DHT22;2548;52.050;11.036;2023-05-23T10:53:35;13.90;99.90
5059;DHT22;2548;52.050;11.036;2023-05-23T10:56:04;13.90;99.90
5059;DHT22;2548;52.050;11.036;2023-05-23T10:58:34;13.90;99.90
5059;DHT22;2548;52.050;11.036;2023-05-23T11:01:05;13.80;99.90
5059;DHT22;2548;52.050;11.036;2023-05-23T11:03:35;13.80;99.90
5059;DHT22;2548;52.050;11.036;2023-05-23T11:06:04;13.80;99.90
5059;DHT22;2548;52.050;11.036;2023-05-23T11:08:38;13.80;99.90
5059;DHT22;2548;52.050;11.036;2023-05-23T11:11:08;13.70;99.90
5059;DHT22;2548;52.050;11.036;2023-05-23T11:13:55;13.80;99.90
5059;DHT22;2548;52.050;11.036;2023-05-23T11:16:28;13.80;99.90
5059;DHT22;2548;52.050;11.036;2023-05-23T11:19:26;13.80;99.90
5059;DHT22;2548;52.050;11.036;2023-05-23T11:21:58;13.90;99.90
5059;DHT22;2548;52.050;11.036;2023-05-23T11:24:51;13.90;99.90
5059;DHT22;2548;52.050;11.036;2023-05-23T11:27:25;14.00;99.90
5059;DHT22;2548;52.050;11.036;2023-05-23T11:30:00;14.00;99.90
5059;DHT22;2548;52.050;11.036;2023-05-23T11:32:30;13.90;99.90
5059;DHT22;2548;52.050;11.036;2023-05-23T11:34:59;13.90;99.90
5059;DHT22;2548;52.050;11.036;2023-05-23T11:37:27;13.90;99.90
5059;DHT22;2548;52.050;11.036;2023-05-23T11:39:54;13.90;99.90
5059;DHT22;2548;52.050;11.036;2023-05-23T11:42:22;13.90;99.90
5059;DHT22;2548;52.050;11.036;2023-05-23T11:44:50;13.80;99.90
5059;DHT22;2548;52.050;11.036;2023-05-23T11:47:18;13.70;99.90
5059;DHT22;2548;52.050;11.036;2023-05-23T11:49:47;13.70;99.90
5059;DHT22;2548;52.050;11.036;2023-05-23T11:52:15;13.70;99.90
5059;DHT22;2548;52.050;11.036;2023-05-23T11:54:42;13.60;99.90
5059;DHT22;2548;52.050;11.036;2023-05-23T11:57:10;13.50;99.90
5059;DHT22;2548;52.050;11.036;2023-05-23T11:59:39;13.60;99.90
5059;DHT22;2548;52.050;11.036;2023-05-23T12:02:07;13.50;99.90
5059;DHT22;2548;52.050;11.036;2023-05-23T12:04:35;13.40;99.90
5059;DHT22;2548;52.050;11.036;2023-05-23T12:07:05;13.40;99.90
5059;DHT22;2548;52.050;11.036;2023-05-23T12:09:41;13.30;99.90
5059;DHT22;2548;52.050;11.036;2023-05-23T12:12:08;13.30;99.90
5059;DHT22;2548;52.050;11.036;2023-05-23T12:14:36;13.20;99.90
5059;DHT22;2548;52.050;11.036;2023-05-23T12:17:10;13.10;99.90
5059;DHT22;2548;52.050;11.036;2023-05-23T12:19:38;13.10;99.90
5059;DHT22;2548;52.050;11.036;2023-05-23T12:22:07;13.00;99.90
5059;DHT22;2548;52.050;11.036;2023-05-23T12:24:35;12.90;99.90
5059;DHT22;2548;52.050;11.036;2023-05-23T12:27:03;12.90;99.90
5059;DHT22;2548;52.050;11.036;2023-05-23T12:29:33;12.80;99.90
5059;DHT22;2548;52.050;11.036;2023-05-23T12:32:02;12.80;99.90
5059;DHT22;2548;52.050;11.036;2023-05-23T12:34:30;12.70;99.90
5059;DHT22;2548;52.050;11.036;2023-05-23T12:36:58;12.70;99.90
5059;DHT22;2548;52.050;11.036;2023-05-23T12:39:30;12.70;99.90
5059;DHT22;2548;52.050;11.036;2023-05-23T12:42:06;12.70;99.90
5059;DHT22;2548;52.050;11.036;2023-05-23T12:44:34;12.60;99.90
5059;DHT22;2548;52.050;11.036;2023-05-23T12:47:02;12.50;99.90
5059;DHT22;2548;52.050;11.036;2023-05-23T12:49:30;12.50;99.90
5059;DHT22;2548;52.050;11.036;2023-05-23T12:51:57;12.40;99.90
5059;DHT22;2548;52.050;11.036;2023-05-23T12:54:25;12.40;99.90
5059;DHT22;2548;52.050;11.036;2023-05-23T12:56:53;12.40;99.90
5059;DHT22;2548;52.050;11.036;2023-05-23T12:59:21;12.40;99.90
5059;DHT22;2548;52.050;11.036;2023-05-23T13:01:48;12.40;99.90
5059;DHT22;2548;52.050;11.036;2023-05-23T13:04:16;12.40;99.90
5059;DHT22;2548;52.050;11.036;2023-05-23T13:06:43;12.40;99.90
5059;DHT22;2548;52.050;11.036;2023-05-23T13:09:11;12.30;99.90
5059;DHT22;2548;52.050;11.036;2023-05-23T13:11:38;12.20;99.90
5059;DHT22;2548;52.050;11.036;2023-05-23T13:14:08;12.20;99.90
5059;DHT22;2548;52.050;11.036;2023-05-23T13:16:36;12.20;99.90
5059;DHT22;2548;52.050;11.036;2023-05-23T13:19:04;12.20;99.90
5059;DHT22;2548;52.050;11.036;2023-05-23T13:21:32;12.20;99.90
5059;DHT22;2548;52.050;11.036;2023-05-23T13:23:59;12.20;99.90
5059;DHT22;2548;52.050;11.036;2023-05-23T13:26:26;12.10;99.90
5059;DHT22;2548;52.050;11.036;2023-05-23T13:28:54;12.10;99.90
5059;DHT22;2548;52.050;11.036;2023-05-23T13:31:23;12.10;99.90
5059;DHT22;2548;52.050;11.036;2023-05-23T13:33:50;12.10;99.90
5059;DHT22;2548;52.050;11.036;2023-05-23T13:36:18;12.00;99.90
5059;DHT22;2548;52.050;11.036;2023-05-23T13:38:45;12.00;99.90
5059;DHT22;2548;52.050;11.036;2023-05-23T13:41:12;12.00;99.90
5059;DHT22;2548;52.050;11.036;2023-05-23T13:43:40;12.00;99.90
5059;DHT22;2548;52.050;11.036;2023-05-23T13:46:07;12.00;99.90
5059;DHT22;2548;52.050;11.036;2023-05-23T13:48:36;12.00;99.90
5059;DHT22;2548;52.050;11.036;2023-05-23T13:51:04;12.00;99.90
5059;DHT22;2548;52.050;11.036;2023-05-23T13:53:31;12.00;99.90
5059;DHT22;2548;52.050;11.036;2023-05-23T13:55:59;12.10;99.90
5059;DHT22;2548;52.050;11.036;2023-05-23T13:58:26;12.10;99.90
5059;DHT22;2548;52.050;11.036;2023-05-23T14:00:54;12.20;99.90
5059;DHT22;2548;52.050;11.036;2023-05-23T14:03:21;12.20;99.90
5059;DHT22;2548;52.050;11.036;2023-05-23T14:05:51;12.20;99.90
5059;DHT22;2548;52.050;11.036;2023-05-23T14:08:18;12.20;99.90
5059;DHT22;2548;52.050;11.036;2023-05-23T14:10:46;12.20;99.90
5059;DHT22;2548;52.050;11.036;2023-05-23T14:13:13;12.20;99.90
5059;DHT22;2548;52.050;11.036;2023-05-23T14:15:41;12.30;99.90
5059;DHT22;2548;52.050;11.036;2023-05-23T14:18:08;12.30;99.90
5059;DHT22;2548;52.050;11.036;2023-05-23T14:20:36;12.30;99.90
5059;DHT22;2548;52.050;11.036;2023-05-23T14:23:05;12.40;99.90
5059;DHT22;2548;52.050;11.036;2023-05-23T14:25:32;12.40;99.90
5059;DHT22;2548;52.050;11.036;2023-05-23T14:28:00;12.50;99.90
5059;DHT22;2548;52.050;11.036;2023-05-23T14:30:27;12.60;99.90
5059;DHT22;2548;52.050;11.036;2023-05-23T14:32:54;12.70;99.90
5059;DHT22;2548;52.050;11.036;2023-05-23T14:35:22;12.80;99.90
5059;DHT22;2548;52.050;11.036;2023-05-23T14:37:50;12.80;99.90
5059;DHT22;2548;52.050;11.036;2023-05-23T14:40:19;12.90;99.90
5059;DHT22;2548;52.050;11.036;2023-05-23T14:42:47;12.90;99.90
5059;DHT22;2548;52.050;11.036;2023-05-23T14:45:14;12.90;99.90
5059;DHT22;2548;52.050;11.036;2023-05-23T14:47:42;13.00;99.90
5059;DHT22;2548;52.050;11.036;2023-05-23T14:50:10;13.20;99.90
5059;DHT22;2548;52.050;11.036;2023-05-23T14:52:37;13.30;99.90
5059;DHT22;2548;52.050;11.036;2023-05-23T14:55:06;13.30;99.90
5059;DHT22;2548;52.050;11.036;2023-05-23T14:57:34;13.50;99.90
5059;DHT22;2548;52.050;11.036;2023-05-23T15:00:02;13.50;99.90
5059;DHT22;2548;52.050;11.036;2023-05-23T15:02:31;13.60;99.90
5059;DHT22;2548;52.050;11.036;2023-05-23T15:04:58;13.80;99.90
5059;DHT22;2548;52.050;11.036;2023-05-23T15:07:25;13.80;99.90
5059;DHT22;2548;52.050;11.036;2023-05-23T15:09:53;14.00;99.90
5059;DHT22;2548;52.050;11.036;2023-05-23T15:12:21;14.00;99.90
5059;DHT22;2548;52.050;11.036;2023-05-23T15:14:50;14.00;99.90
5059;DHT22;2548;52.050;11.036;2023-05-23T15:17:17;13.90;99.90
5059;DHT22;2548;52.050;11.036;2023-05-23T15:19:47;13.90;99.90
5059;DHT22;2548;52.050;11.036;2023-05-23T15:22:14;13.90;99.90
5059;DHT22;2548;52.050;11.036;2023-05-23T15:24:41;13.80;99.90
5059;DHT22;2548;52.050;11.036;2023-05-23T15:27:09;13.80;99.90
5059;DHT22;2548;52.050;11.036;2023-05-23T15:29:36;14.10;99.90
5059;DHT22;2548;52.050;11.036;2023-05-23T15:32:07;14.40;99.90
5059;DHT22;2548;52.050;11.036;2023-05-23T15:34:34;14.60;99.90
5059;DHT22;2548;52.050;11.036;2023-05-23T15:37:02;14.90;99.90
5059;DHT22;2548;52.050;11.036;2023-05-23T15:39:30;15.00;99.90
5059;DHT22;2548;52.050;11.036;2023-05-23T15:41:58;15.00;99.90
5059;DHT22;2548;52.050;11.036;2023-05-23T15:44:26;15.10;99.90
5059;DHT22;2548;52.050;11.036;2023-05-23T15:46:53;15.20;99.90
5059;DHT22;2548;52.050;11.036;2023-05-23T15:49:22;15.10;99.90
5059;DHT22;2548;52.050;11.036;2023-05-23T15:51:50;15.20;99.90
5059;DHT22;2548;52.050;11.036;2023-05-23T15:54:18;15.30;99.90
5059;DHT22;2548;52.050;11.036;2023-05-23T15:56:45;15.40;99.90
5059;DHT22;2548;52.050;11.036;2023-05-23T15:59:13;15.50;99.90
5059;DHT22;2548;52.050;11.036;2023-05-23T16:01:40;15.40;99.90